Vermilion on the Lake, Ohio
Current Conditions -  °F | °C
As of 12:53 PM on Monday 22 Dec 2014 (Local Time) from KLPR Reporting Station
Overcast Overcast  
Wind Chill: 31°   Ceiling: 4400
Heat Index: 38°   Visibility: 9mi
Dew Point: 30°   Wind: 9mph
Humidity: 73%   Direction: 150°SSE
Pressure: 30"   Gusts: NA
Location:  41.3884°N, 82.3643°W
Report Text: KLPR 221753Z AUTO 15008KT 9SM OVC044 03/M01 A3000 RMK AO2 SLP168 T00331011 10039 21056 58029 TSNO
Loading
Personal Weather Stations






























Interactive Weather Map New forecast layout! Learn more

10-Day Weather Forecast

Advertisements
Track Severe Weather on mobile